»·PEaware :: DAL450 KSMX-KMRY

DAL450 :: KSMX-KMRY

FLIGHT INFORMATION

Flight Status: Arrived
Operator:
Delta Air Lines
More flights by this operator :: More flights under this callsign
Pilot: Sergei F. (8485)
Aircraft: BOEING 757-200
(B752)
More flights by this aircraft type
Origin: KSMX Santa Maria Pub/Capt Hancock
United States
Destination: KMRY Monterey Peninsula
United States
More flights between these airports :: More routes between these airports
Route: BUELT4 FRAMS V27 BSR PEBB1
File this flight plan on PilotEdge
Remarks:
Altitude:
(Current/Filed)
200ft
Speed:
(Current/Filed)
300kts
Departed: 03-Jan-18 07:51 PM
Arrived: 03-Jan-18 08:27 PM
Distance/Time
Traveled:
269nm/0:36
Distance/Time
To Go:
Arrived

Flight Plot

Page will automatically refresh every two minutes.

Flight plan parsing failed; only flown route is shown


Map Options




Map Legend


Flown Route
Filed Route
Departure Airport
Arrival Airport
Navaid (VOR, NDB)
Fix

Horizontal Profiles

Position Reports

Time Latitude Longitude Heading Altitude Ground
Speed
03-Jan-18 19:31 34.898278 -120.447614 46 273ft 0kts
03-Jan-18 19:32 34.898278 -120.447614 46 273ft 0kts
03-Jan-18 19:33 34.898278 -120.447614 46 273ft 0kts
03-Jan-18 19:34 34.898278 -120.447614 46 273ft 0kts
03-Jan-18 19:35 34.898278 -120.447614 46 273ft 0kts
03-Jan-18 19:36 34.898278 -120.447614 46 272ft 0kts
03-Jan-18 19:37 34.898278 -120.447614 46 272ft 0kts
03-Jan-18 19:38 34.898278 -120.447614 46 272ft 0kts
03-Jan-18 19:39 34.898278 -120.447614 46 272ft 0kts
03-Jan-18 19:40 34.898278 -120.447614 46 272ft 0kts
03-Jan-18 19:41 34.898278 -120.447614 46 272ft 0kts
03-Jan-18 19:42 34.898278 -120.447614 46 272ft 0kts
03-Jan-18 19:43 34.898278 -120.447614 46 272ft 0kts
03-Jan-18 19:44 34.898141 -120.447845 67 272ft 1kts
03-Jan-18 19:45 34.898212 -120.448298 131 272ft 1kts
03-Jan-18 19:46 34.898246 -120.448342 133 272ft 0kts
03-Jan-18 19:47 34.898246 -120.448342 133 272ft 0kts
03-Jan-18 19:48 34.898246 -120.448342 133 272ft 0kts
03-Jan-18 19:49 34.898246 -120.448342 133 272ft 0kts
03-Jan-18 19:50 34.897533 -120.448541 216 272ft 4kts
03-Jan-18 19:51 34.896509 -120.447732 134 272ft 4kts
03-Jan-18 19:52 34.895557 -120.446599 135 273ft 4kts
03-Jan-18 19:53 34.894608 -120.445465 135 272ft 4kts
03-Jan-18 19:54 34.893534 -120.444949 181 272ft 0kts
03-Jan-18 19:55 34.893139 -120.444965 188 272ft 6kts
03-Jan-18 19:56 34.892837 -120.445834 314 272ft 0kts
03-Jan-18 19:57 34.903483 -120.458514 316 284ft 160kts
03-Jan-18 19:58 34.940983 -120.466975 77 2200ft 179kts
03-Jan-18 19:59 34.907639 -120.451786 202 4260ft 178kts
03-Jan-18 20:00 34.861189 -120.472722 167 6211ft 184kts
03-Jan-18 20:01 34.855875 -120.425248 22 8040ft 208kts
03-Jan-18 20:02 34.904216 -120.456659 315 9788ft 217kts
03-Jan-18 20:03 34.954091 -120.509137 316 11286ft 258kts
03-Jan-18 20:04 35.013774 -120.571042 316 12848ft 308kts
03-Jan-18 20:05 35.084010 -120.643918 316 14401ft 355kts
03-Jan-18 20:06 35.161606 -120.724634 316 15618ft 401kts
03-Jan-18 20:07 35.247645 -120.814313 315 18107ft 417kts
03-Jan-18 20:08 35.336159 -120.906874 315 20065ft 418kts
03-Jan-18 20:09 35.412343 -121.010706 303 20072ft 410kts
03-Jan-18 20:10 35.482234 -121.120347 302 20089ft 409kts
03-Jan-18 20:11 35.552133 -121.230708 302 20097ft 410kts
03-Jan-18 20:12 35.621408 -121.338813 309 19131ft 398kts
03-Jan-18 20:13 35.718919 -121.401366 333 17451ft 392kts
03-Jan-18 20:14 35.816998 -121.452313 333 15767ft 379kts
03-Jan-18 20:15 35.912124 -121.501683 333 14069ft 358kts
03-Jan-18 20:16 35.986852 -121.540583 334 12668ft 349kts
03-Jan-18 20:17 36.083799 -121.591126 334 10694ft 308kts
03-Jan-18 20:18 36.143855 -121.622525 335 10041ft 301kts
03-Jan-18 20:19 36.213360 -121.670000 321 9978ft 276kts
03-Jan-18 20:20 36.285468 -121.732247 321 9979ft 270kts
03-Jan-18 20:21 36.347327 -121.785933 322 9374ft 278kts
03-Jan-18 20:22 36.398532 -121.830421 324 8127ft 265kts
03-Jan-18 20:23 36.456939 -121.881293 325 6632ft 254kts
03-Jan-18 20:24 36.497833 -121.943858 292 5978ft 225kts
03-Jan-18 20:25 36.523800 -122.015591 293 5237ft 223kts
03-Jan-18 20:26 36.548018 -122.083719 305 4080ft 212kts
03-Jan-18 20:27 36.596163 -122.085773 22 3148ft 174kts
03-Jan-18 20:28 36.633838 -122.059177 77 2121ft 154kts
03-Jan-18 20:29 36.639282 -122.007997 83 1973ft 138kts
03-Jan-18 20:30 36.627233 -121.963863 112 1960ft 131kts
03-Jan-18 20:31 36.612752 -121.921124 110 1305ft 135kts
03-Jan-18 20:32 36.598506 -121.878046 112 523ft 132kts
03-Jan-18 20:33 36.586300 -121.842318 113 224ft 34kts
03-Jan-18 20:34 36.585282 -121.842146 290 233ft 8kts
03-Jan-18 20:35 36.586159 -121.844760 291 211ft 10kts
03-Jan-18 20:36 36.587126 -121.847239 292 197ft 6kts
03-Jan-18 20:37 36.587708 -121.849856 235 187ft 3kts
03-Jan-18 20:38 36.587624 -121.850014 238 188ft 0kts
03-Jan-18 20:39 36.587551 -121.850128 230 188ft 0kts
03-Jan-18 20:42 36.080688 -115.138769 315 2072ft 0kts
03-Jan-18 20:43 36.080688 -115.138769 315 2072ft 0kts

Navigation Log

Ident Type
Flight plan parsing failed, navigation log unavailable